Airey, Mississippi
Current Conditions -  °F | °C
As of 10:17 PM on Sunday 23 Nov 2014 (Local Time) from KGPT Reporting Station
Haze Haze  
Wind Chill: 66°   Ceiling: 300
Heat Index: 66°   Visibility: 1.7mi
Dew Point: 65°   Wind: 9mph
Humidity: 96%   Direction: 190°S
Pressure: 29.75"   Gusts: NA
Location:  30.603°N, 89.0932°W
Report Text: KGPT 240417Z AUTO 19008KT 1 3/4SM BR OVC003 19/18 A2975 RMK AO2 T01890183 TSNO
Loading
Personal Weather Stations






























Interactive Weather Map New forecast layout! Learn more

10-Day Weather Forecast

Advertisements
Track Severe Weather on mobile